createdAt,value
2019-05-05T00:02:17.242Z,100351.81
2019-05-05T00:04:54.365Z,100359.67
2019-05-05T00:07:26.754Z,100361.74
2019-05-05T00:09:58.708Z,100363.32
2019-05-05T00:12:31.130Z,100363.32
2019-05-05T00:15:05.197Z,100363.75
2019-05-05T00:17:36.303Z,100370.22
2019-05-05T00:20:08.581Z,100380.25
2019-05-05T00:22:39.279Z,100382.39
2019-05-05T00:25:10.064Z,100381.70
2019-05-05T00:27:40.768Z,100379.63
2019-05-05T00:30:14.371Z,100382.23
2019-05-05T00:32:45.192Z,100382.27
2019-05-05T00:35:15.926Z,100391.02
2019-05-05T00:37:46.790Z,100391.48
2019-05-05T00:40:17.556Z,100396.27
2019-05-05T00:42:50.850Z,100395.80
2019-05-05T00:45:21.471Z,100397.09
2019-05-05T00:47:54.529Z,100391.84
2019-05-05T00:50:25.387Z,100384.38
2019-05-05T00:52:56.064Z,100394.45
2019-05-05T00:55:26.997Z,100398.34
2019-05-05T00:57:57.563Z,100401.55
2019-05-05T01:00:30.049Z,100405.25
2019-05-05T01:03:00.838Z,100401.56
2019-05-05T01:05:34.395Z,100399.55
2019-05-05T01:08:06.984Z,100398.52
2019-05-05T01:10:37.753Z,100408.38
2019-05-05T01:13:08.575Z,100410.69
2019-05-05T01:15:39.550Z,100406.34
2019-05-05T01:18:10.250Z,100411.09
2019-05-05T01:20:40.834Z,100406.86
2019-05-05T01:23:14.887Z,100411.52
2019-05-05T01:25:48.652Z,100414.95
2019-05-05T01:28:17.912Z,100411.48
2019-05-05T01:30:50.609Z,100412.02
2019-05-05T01:33:39.046Z,100413.16
2019-05-05T01:36:09.753Z,100417.60
2019-05-05T01:38:44.526Z,100418.19
2019-05-05T01:41:31.376Z,100416.59
2019-05-05T01:44:02.098Z,100424.75
2019-05-05T01:46:32.820Z,100425.81
2019-05-05T01:49:05.394Z,100435.56
2019-05-05T01:51:35.922Z,100439.86
2019-05-05T01:54:06.866Z,100444.25
2019-05-05T01:56:37.685Z,100460.30
2019-05-05T01:59:08.309Z,100462.47
2019-05-05T02:01:39.318Z,100466.51
2019-05-05T02:04:10.298Z,100474.42
2019-05-05T02:06:41.123Z,100478.05
2019-05-05T02:09:11.734Z,100489.31
2019-05-05T02:11:42.565Z,100488.64
2019-05-05T02:14:15.423Z,100488.78
2019-05-05T02:16:46.720Z,100491.20
2019-05-05T02:19:17.832Z,100487.91
2019-05-05T02:21:48.504Z,100494.21
2019-05-05T02:24:19.108Z,100491.79
2019-05-05T02:26:54.555Z,100500.30
2019-05-05T02:29:30.946Z,100509.99
2019-05-05T02:32:19.569Z,100510.94
2019-05-05T02:34:56.186Z,100503.99
2019-05-05T02:37:27.498Z,100516.38
2019-05-05T02:40:03.291Z,100524.37
2019-05-05T02:42:35.424Z,100523.09
2019-05-05T02:45:07.665Z,100517.84
2019-05-05T02:47:47.350Z,100525.16
2019-05-05T02:50:18.775Z,100529.53
2019-05-05T02:52:50.495Z,100535.02
2019-05-05T02:55:23.548Z,100536.81
2019-05-05T02:57:56.411Z,100535.39
2019-05-05T03:00:29.521Z,100531.89
2019-05-05T03:03:01.902Z,100537.72
2019-05-05T03:05:34.103Z,100549.30
2019-05-05T03:08:04.957Z,100547.11
2019-05-05T03:10:36.156Z,100549.18
2019-05-05T03:13:07.257Z,100546.19
2019-05-05T03:15:55.001Z,100553.30
2019-05-05T03:18:25.718Z,100552.41
2019-05-05T03:21:04.536Z,100561.61
2019-05-05T03:23:29.369Z,100563.41
2019-05-05T03:26:00.124Z,100567.38
2019-05-05T03:28:34.428Z,100569.59
2019-05-05T03:31:05.311Z,100572.47
2019-05-05T03:33:36.570Z,100574.99
2019-05-05T03:36:08.067Z,100576.72
2019-05-05T03:38:38.843Z,100574.97
2019-05-05T03:41:13.595Z,100574.20
2019-05-05T03:44:04.697Z,100573.43
2019-05-05T03:46:36.764Z,100587.53
2019-05-05T03:49:07.568Z,100597.89
2019-05-05T03:51:38.844Z,100598.59
2019-05-05T03:54:09.971Z,100599.32
2019-05-05T03:56:41.160Z,100601.12
2019-05-05T03:59:14.161Z,100614.23
2019-05-05T04:01:46.946Z,100618.56
2019-05-05T04:04:28.471Z,100628.98
2019-05-05T04:07:00.875Z,100640.66
2019-05-05T04:09:31.656Z,100641.55
2019-05-05T04:12:04.264Z,100643.13
2019-05-05T04:14:34.938Z,100644.36
2019-05-05T04:17:24.381Z,100649.94
2019-05-05T04:19:56.192Z,100645.43
2019-05-05T04:22:26.936Z,100637.36
2019-05-05T04:24:57.625Z,100642.59
2019-05-05T04:27:28.371Z,100643.41
2019-05-05T04:29:59.111Z,100640.31
2019-05-05T04:32:29.861Z,100640.91
2019-05-05T04:35:00.677Z,100643.25
2019-05-05T04:37:31.397Z,100642.87
2019-05-05T04:40:04.049Z,100650.68
2019-05-05T04:42:34.842Z,100656.49
2019-05-05T04:45:08.422Z,100668.77
2019-05-05T04:47:55.951Z,100661.21
2019-05-05T04:50:45.188Z,100659.48
2019-05-05T04:53:19.329Z,100659.33
2019-05-05T04:55:51.182Z,100659.18
2019-05-05T04:58:24.126Z,100663.84
2019-05-05T05:00:54.822Z,100656.29
2019-05-05T05:03:34.648Z,100662.65
2019-05-05T05:06:14.647Z,100662.19
2019-05-05T05:08:46.150Z,100667.91
2019-05-05T05:11:17.405Z,100667.69
2019-05-05T05:13:48.158Z,100675.05
2019-05-05T05:16:18.914Z,100676.18
2019-05-05T05:18:49.540Z,100675.13
2019-05-05T05:21:20.289Z,100677.14
2019-05-05T05:23:50.977Z,100687.08
2019-05-05T05:26:24.234Z,100687.31
2019-05-05T05:28:54.978Z,100692.68
2019-05-05T05:31:25.800Z,100691.55
2019-05-05T05:33:56.394Z,100702.01
2019-05-05T05:36:27.013Z,100701.30
2019-05-05T05:38:59.260Z,100707.77
2019-05-05T05:41:48.357Z,100710.25
2019-05-05T05:44:29.501Z,100703.98
2019-05-05T05:47:03.593Z,100710.42
2019-05-05T05:49:35.854Z,100706.11
2019-05-05T05:52:16.272Z,100717.62
2019-05-05T05:54:38.879Z,100716.42
2019-05-05T05:57:09.549Z,100722.84
2019-05-05T05:59:40.557Z,100734.09
2019-05-05T06:02:15.394Z,100731.47
2019-05-05T06:04:44.775Z,100736.33
2019-05-05T06:07:15.751Z,100746.65
2019-05-05T06:09:46.442Z,100746.63
2019-05-05T06:12:17.171Z,100750.92
2019-05-05T06:14:47.801Z,100751.09
2019-05-05T06:17:18.830Z,100759.02
2019-05-05T06:19:49.521Z,100762.20
2019-05-05T06:22:28.467Z,100759.73
2019-05-05T06:24:54.116Z,100758.98
2019-05-05T06:27:25.467Z,100754.39
2019-05-05T06:29:56.239Z,100758.15
2019-05-05T06:32:27.464Z,100768.69
2019-05-05T06:34:58.139Z,100770.23
2019-05-05T06:37:29.004Z,100769.84
2019-05-05T06:40:01.358Z,100764.21
2019-05-05T06:42:36.333Z,100765.05
2019-05-05T06:45:09.929Z,100773.41
2019-05-05T06:47:42.107Z,100772.44
2019-05-05T06:50:14.048Z,100779.09
2019-05-05T06:52:47.120Z,100781.73
2019-05-05T06:55:17.519Z,100785.50
2019-05-05T06:57:48.253Z,100783.90
2019-05-05T07:00:19.571Z,100783.91
2019-05-05T07:02:51.131Z,100774.70
2019-05-05T07:05:23.531Z,100783.09
2019-05-05T07:07:54.493Z,100779.91
2019-05-05T07:10:26.641Z,100782.70
2019-05-05T07:12:57.286Z,100808.80
2019-05-05T07:15:28.026Z,100790.72
2019-05-05T07:17:58.732Z,100800.00
2019-05-05T07:20:30.415Z,100796.64
2019-05-05T07:23:03.033Z,100802.61
2019-05-05T07:25:41.446Z,100800.95
2019-05-05T07:28:06.811Z,100805.42
2019-05-05T07:30:37.933Z,100808.45
2019-05-05T07:33:08.975Z,100823.12
2019-05-05T07:35:54.920Z,100826.13
2019-05-05T07:38:14.073Z,100815.29
2019-05-05T07:40:46.261Z,100811.80
2019-05-05T07:43:17.430Z,100817.00
2019-05-05T07:45:48.664Z,100807.17
2019-05-05T07:48:19.229Z,100815.08
2019-05-05T07:50:59.713Z,100820.73
2019-05-05T07:53:24.486Z,100829.77
2019-05-05T07:55:55.055Z,100828.12
2019-05-05T07:58:25.736Z,100828.58
2019-05-05T08:00:57.618Z,100825.45
2019-05-05T08:03:30.259Z,100829.41
2019-05-05T08:06:01.139Z,100826.64
2019-05-05T08:08:33.502Z,100828.88
2019-05-05T08:11:05.245Z,100834.09
2019-05-05T08:13:35.943Z,100834.23
2019-05-05T08:16:25.041Z,100832.12
2019-05-05T08:19:06.441Z,100836.64
2019-05-05T08:21:37.122Z,100842.53
2019-05-05T08:24:09.386Z,100844.47
2019-05-05T08:26:44.067Z,100841.13
2019-05-05T08:29:31.680Z,100848.70
2019-05-05T08:32:09.725Z,100849.38
2019-05-05T08:34:53.945Z,100845.06
2019-05-05T08:37:14.613Z,100839.25
2019-05-05T08:39:45.479Z,100845.94
2019-05-05T08:42:16.613Z,100847.65
2019-05-05T08:44:47.562Z,100841.12
2019-05-05T08:47:18.277Z,100844.27
2019-05-05T08:49:49.113Z,100848.35
2019-05-05T08:52:19.876Z,100849.76
2019-05-05T08:54:53.973Z,100845.82
2019-05-05T08:57:24.534Z,100850.87
2019-05-05T08:59:55.364Z,100853.20
2019-05-05T09:02:26.077Z,100856.88
2019-05-05T09:04:57.290Z,100856.23
2019-05-05T09:07:28.075Z,100856.77
2019-05-05T09:09:58.688Z,100859.28
2019-05-05T09:12:29.510Z,100865.75
2019-05-05T09:15:00.539Z,100863.06
2019-05-05T09:17:33.667Z,100851.17
2019-05-05T09:20:05.426Z,100858.56
2019-05-05T09:22:36.205Z,100858.14
2019-05-05T09:25:17.674Z,100853.87
2019-05-05T09:27:59.352Z,100852.17
2019-05-05T09:30:40.230Z,100874.95
2019-05-05T09:33:11.330Z,100871.41
2019-05-05T09:35:43.726Z,100870.86
2019-05-05T09:38:14.833Z,100875.30
2019-05-05T09:40:46.008Z,100871.94
2019-05-05T09:43:17.310Z,100876.05
2019-05-05T09:45:49.081Z,100879.54
2019-05-05T09:48:20.525Z,100865.48
2019-05-05T09:50:51.209Z,100867.94
2019-05-05T09:53:23.769Z,100868.18
2019-05-05T09:55:55.137Z,100863.73
2019-05-05T09:58:25.953Z,100867.59
2019-05-05T10:00:57.774Z,100871.56
2019-05-05T10:03:29.136Z,100865.05
2019-05-05T10:06:00.155Z,100872.95
2019-05-05T10:08:30.736Z,100875.86
2019-05-05T10:11:01.487Z,100863.59
2019-05-05T10:13:33.611Z,100879.11
2019-05-05T10:16:05.509Z,100862.74
2019-05-05T10:18:36.720Z,100864.23
2019-05-05T10:21:07.374Z,100868.67
2019-05-05T10:23:39.729Z,100877.70
2019-05-05T10:26:14.870Z,100871.02
2019-05-05T10:28:45.675Z,100878.05
2019-05-05T10:31:16.590Z,100876.66
2019-05-05T10:33:48.955Z,100873.72
2019-05-05T10:36:19.642Z,100869.05
2019-05-05T10:38:55.173Z,100862.03
2019-05-05T10:41:26.452Z,100870.70
2019-05-05T10:43:57.133Z,100866.31
2019-05-05T10:46:28.026Z,100870.68
2019-05-05T10:48:59.915Z,100874.36
2019-05-05T10:51:30.792Z,100873.68
2019-05-05T10:54:04.056Z,100864.70
2019-05-05T10:56:35.531Z,100869.13
2019-05-05T10:59:06.257Z,100868.92
2019-05-05T11:01:37.126Z,100867.39
2019-05-05T11:04:08.055Z,100873.78
2019-05-05T11:06:40.612Z,100847.88
2019-05-05T11:09:13.844Z,100867.61
2019-05-05T11:11:44.653Z,100865.17
2019-05-05T11:14:15.894Z,100865.28
2019-05-05T11:16:46.543Z,100863.08
2019-05-05T11:19:17.492Z,100865.38
2019-05-05T11:21:48.222Z,100872.67
2019-05-05T11:24:18.835Z,100872.09
2019-05-05T11:26:49.627Z,100875.36
2019-05-05T11:29:21.692Z,100863.66
2019-05-05T11:31:55.401Z,100863.66
2019-05-05T11:34:27.511Z,100871.67
2019-05-05T11:36:59.836Z,100874.32
2019-05-05T11:39:31.041Z,100851.92
2019-05-05T11:42:04.250Z,100836.41
2019-05-05T11:44:35.028Z,100836.41
2019-05-05T11:47:06.244Z,100879.41
2019-05-05T11:49:37.483Z,100879.41
2019-05-05T11:52:08.454Z,100878.18
2019-05-05T11:54:39.973Z,100871.33
2019-05-05T11:57:10.701Z,100872.11
2019-05-05T11:59:41.974Z,100877.63
2019-05-05T12:02:14.022Z,100875.37
2019-05-05T12:04:45.036Z,100877.03
2019-05-05T12:07:16.531Z,100884.47
2019-05-05T12:09:48.967Z,100887.73
2019-05-05T12:12:19.611Z,100885.66
2019-05-05T12:14:53.726Z,100879.52
2019-05-05T12:17:36.504Z,100889.34
2019-05-05T12:20:10.146Z,100876.42
2019-05-05T12:22:41.054Z,100867.16
2019-05-05T12:25:29.930Z,100864.47
2019-05-05T12:28:04.410Z,100885.38
2019-05-05T12:30:35.870Z,100877.08
2019-05-05T12:33:07.229Z,100849.50
2019-05-05T12:35:37.978Z,100849.50
2019-05-05T12:38:08.715Z,100869.75
2019-05-05T12:40:39.801Z,100832.78
2019-05-05T12:43:14.188Z,100872.48
2019-05-05T12:45:48.528Z,100872.48
2019-05-05T12:48:34.490Z,100870.73
2019-05-05T12:51:05.791Z,100872.20
2019-05-05T12:53:38.606Z,100871.69
2019-05-05T12:56:11.490Z,100874.00
2019-05-05T12:58:44.003Z,100873.17
2019-05-05T13:01:36.153Z,100874.97
2019-05-05T13:04:07.170Z,100875.66
2019-05-05T13:06:38.314Z,100869.86
2019-05-05T13:09:09.464Z,100877.05
2019-05-05T13:11:40.088Z,100872.39
2019-05-05T13:14:11.044Z,100868.80
2019-05-05T13:16:52.374Z,100873.84
2019-05-05T13:19:31.741Z,100871.16
2019-05-05T13:22:13.606Z,100865.50
2019-05-05T13:24:48.949Z,100862.25
2019-05-05T13:27:39.517Z,100861.63
2019-05-05T13:30:18.806Z,100857.44
2019-05-05T13:32:49.978Z,100858.84
2019-05-05T13:35:23.441Z,100860.55
2019-05-05T13:37:54.951Z,100864.66
2019-05-05T13:40:26.298Z,100864.86
2019-05-05T13:42:57.656Z,100864.42
2019-05-05T13:45:50.386Z,100861.86
2019-05-05T13:48:22.694Z,100866.83
2019-05-05T13:51:00.564Z,100856.95
2019-05-05T13:53:34.102Z,100858.98
2019-05-05T13:56:11.955Z,100858.59
2019-05-05T13:58:40.130Z,100855.83
2019-05-05T14:01:14.538Z,100862.52
2019-05-05T14:03:45.560Z,100856.10
2019-05-05T14:06:17.096Z,100853.63
2019-05-05T14:08:48.993Z,100855.70
2019-05-05T14:11:22.154Z,100852.86
2019-05-05T14:13:54.110Z,100864.53
2019-05-05T14:16:25.681Z,100857.34
2019-05-05T14:18:56.639Z,100854.97
2019-05-05T14:21:27.634Z,100850.85
2019-05-05T14:24:09.821Z,100844.18
2019-05-05T14:26:41.955Z,100838.48
2019-05-05T14:29:15.936Z,100847.95
2019-05-05T14:31:52.069Z,100836.86
2019-05-05T14:34:25.597Z,100840.42
2019-05-05T14:37:01.780Z,100845.80
2019-05-05T14:39:34.113Z,100711.00
2019-05-05T14:42:06.324Z,100840.22
2019-05-05T14:44:37.657Z,100829.43
2019-05-05T14:47:09.093Z,100835.06
2019-05-05T14:49:41.152Z,100840.87
2019-05-05T14:52:13.675Z,100848.10
2019-05-05T14:54:45.209Z,100848.28
2019-05-05T14:57:17.429Z,100846.64
2019-05-05T14:59:48.524Z,100838.30
2019-05-05T15:02:19.763Z,100844.69
2019-05-05T15:04:53.699Z,100855.05
2019-05-05T15:07:44.546Z,100849.38
2019-05-05T15:10:34.363Z,100840.20
2019-05-05T15:13:08.592Z,100841.42
2019-05-05T15:15:39.781Z,100842.02
2019-05-05T15:18:14.636Z,100842.02
2019-05-05T15:20:46.624Z,100843.48
2019-05-05T15:23:18.355Z,100842.13
2019-05-05T15:25:49.475Z,100835.50
2019-05-05T15:28:20.991Z,100836.06
2019-05-05T15:30:54.524Z,100840.81
2019-05-05T15:33:26.508Z,100842.52
2019-05-05T15:35:57.264Z,100842.42
2019-05-05T15:38:28.024Z,100840.52
2019-05-05T15:40:58.848Z,100841.90
2019-05-05T15:43:30.066Z,100836.67
2019-05-05T15:46:04.533Z,100838.72
2019-05-05T15:48:35.814Z,100847.00
2019-05-05T15:51:07.141Z,100832.77
2019-05-05T15:53:37.826Z,100837.75
2019-05-05T15:56:10.554Z,100842.94
2019-05-05T15:58:43.398Z,100842.94
2019-05-05T16:01:14.367Z,100850.82
2019-05-05T16:03:45.587Z,100861.72
2019-05-05T16:06:16.343Z,100852.05
2019-05-05T16:08:47.210Z,100851.81
2019-05-05T16:11:18.713Z,100855.55
2019-05-05T16:13:51.091Z,100848.99
2019-05-05T16:16:29.555Z,100845.51
2019-05-05T16:19:08.476Z,100855.78
2019-05-05T16:21:40.966Z,100854.48
2019-05-05T16:24:14.032Z,100853.76
2019-05-05T16:26:44.825Z,100850.24
2019-05-05T16:29:15.629Z,100859.34
2019-05-05T16:31:49.098Z,100859.04
2019-05-05T16:34:20.073Z,100853.58
2019-05-05T16:36:56.669Z,100854.13
2019-05-05T16:39:26.765Z,100847.70
2019-05-05T16:41:57.802Z,100853.47
2019-05-05T16:44:28.881Z,100853.67
2019-05-05T16:46:59.871Z,100851.45
2019-05-05T16:49:30.911Z,100850.10
2019-05-05T16:52:04.075Z,100852.22
2019-05-05T16:54:37.236Z,100852.33
2019-05-05T16:57:08.538Z,100844.58
2019-05-05T16:59:39.713Z,100856.47
2019-05-05T17:02:10.286Z,100850.62
2019-05-05T17:04:43.344Z,100853.84
2019-05-05T17:07:14.322Z,100848.31
2019-05-05T17:09:46.605Z,100847.37
2019-05-05T17:12:18.249Z,100842.13
2019-05-05T17:14:54.419Z,100850.95
2019-05-05T17:17:44.449Z,100845.70
2019-05-05T17:20:19.641Z,100851.28
2019-05-05T17:22:57.874Z,100852.02
2019-05-05T17:25:28.792Z,100853.10
2019-05-05T17:28:00.180Z,100859.61
2019-05-05T17:30:31.566Z,100855.50
2019-05-05T17:33:03.796Z,100853.09
2019-05-05T17:35:36.295Z,100857.32
2019-05-05T17:38:13.754Z,100863.11
2019-05-05T17:40:46.377Z,100868.90
2019-05-05T17:43:37.132Z,100866.50
2019-05-05T17:46:24.223Z,100871.67
2019-05-05T17:49:04.676Z,100872.87
2019-05-05T17:51:40.377Z,100870.91
2019-05-05T17:54:24.090Z,100872.00
2019-05-05T17:56:55.131Z,100872.89
2019-05-05T17:59:29.355Z,100873.20
2019-05-05T18:02:00.338Z,100875.71
2019-05-05T18:04:33.703Z,100874.64
2019-05-05T18:07:06.043Z,100875.78
2019-05-05T18:09:56.196Z,100880.29
2019-05-05T18:12:33.753Z,100883.41
2019-05-05T18:15:08.998Z,100884.45
2019-05-05T18:17:40.172Z,100882.24
2019-05-05T18:20:12.574Z,100887.38
2019-05-05T18:22:44.502Z,100888.13
2019-05-05T18:25:17.178Z,100895.59
2019-05-05T18:27:48.293Z,100891.40
2019-05-05T18:30:19.632Z,100898.52
2019-05-05T18:32:53.405Z,100899.92
2019-05-05T18:35:27.001Z,100901.95
2019-05-05T18:37:59.572Z,100902.43
2019-05-05T18:40:30.813Z,100906.21
2019-05-05T18:43:05.933Z,100909.17
2019-05-05T18:45:38.786Z,100907.55
2019-05-05T18:48:11.697Z,100910.72
2019-05-05T18:50:42.643Z,100908.06
2019-05-05T18:53:15.158Z,100906.83
2019-05-05T18:55:48.535Z,100912.52
2019-05-05T18:58:27.185Z,100913.77
2019-05-05T19:00:57.414Z,100918.53
2019-05-05T19:03:45.278Z,100915.91
2019-05-05T19:06:18.387Z,100928.13
2019-05-05T19:08:54.545Z,100932.55
2019-05-05T19:11:26.050Z,100932.37
2019-05-05T19:13:58.035Z,100931.74
2019-05-05T19:16:31.407Z,100929.31
2019-05-05T19:19:04.478Z,100931.56
2019-05-05T19:21:38.698Z,100937.77
2019-05-05T19:24:09.502Z,100931.25
2019-05-05T19:26:44.028Z,100933.78
2019-05-05T19:29:15.879Z,100930.96
2019-05-05T19:31:46.994Z,100933.22
2019-05-05T19:34:18.318Z,100938.95
2019-05-05T19:36:50.047Z,100939.91
2019-05-05T19:39:20.716Z,100931.66
2019-05-05T19:41:54.140Z,100935.10
2019-05-05T19:44:26.115Z,100934.98
2019-05-05T19:47:00.279Z,100933.95
2019-05-05T19:49:31.286Z,100934.81
2019-05-05T19:52:05.866Z,100924.61
2019-05-05T19:54:37.010Z,100930.23
2019-05-05T19:57:07.886Z,100930.14
2019-05-05T19:59:41.381Z,100931.47
2019-05-05T20:02:12.935Z,100932.33
2019-05-05T20:04:44.702Z,100929.58
2019-05-05T20:07:16.986Z,100932.48
2019-05-05T20:09:50.243Z,100930.69
2019-05-05T20:12:20.851Z,100933.81
2019-05-05T20:14:51.701Z,100934.97
2019-05-05T20:17:28.586Z,100941.02
2019-05-05T20:19:59.953Z,100941.89
2019-05-05T20:22:30.808Z,100934.37
2019-05-05T20:25:07.316Z,100935.81
2019-05-05T20:27:38.254Z,100933.77
2019-05-05T20:30:11.087Z,100936.13
2019-05-05T20:32:45.122Z,100932.73
2019-05-05T20:35:21.250Z,100931.16
2019-05-05T20:37:54.232Z,100923.63
2019-05-05T20:40:26.904Z,100927.56
2019-05-05T20:42:58.378Z,100935.09
2019-05-05T20:45:31.096Z,100923.80
2019-05-05T20:48:04.544Z,100934.21
2019-05-05T20:50:35.743Z,100934.32
2019-05-05T20:53:07.193Z,100936.37
2019-05-05T20:55:41.105Z,100936.47
2019-05-05T20:58:13.982Z,100933.31
2019-05-05T21:00:46.119Z,100937.85
2019-05-05T21:03:17.298Z,100938.72
2019-05-05T21:05:48.147Z,100934.68
2019-05-05T21:08:19.259Z,100936.90
2019-05-05T21:10:50.090Z,100933.85
2019-05-05T21:13:20.837Z,100930.41
2019-05-05T21:15:53.756Z,100936.86
2019-05-05T21:18:27.094Z,100931.83
2019-05-05T21:21:01.869Z,100935.51
2019-05-05T21:23:38.313Z,100930.28
2019-05-05T21:26:13.853Z,100930.05
2019-05-05T21:28:44.515Z,100933.49
2019-05-05T21:31:15.489Z,100931.28
2019-05-05T21:33:48.882Z,100929.08
2019-05-05T21:36:19.894Z,100936.14
2019-05-05T21:38:51.748Z,100932.52
2019-05-05T21:41:24.468Z,100939.23
2019-05-05T21:43:57.906Z,100941.61
2019-05-05T21:46:28.722Z,100936.89
2019-05-05T21:48:59.602Z,100938.48
2019-05-05T21:51:39.876Z,100943.12
2019-05-05T21:54:29.896Z,100944.54
2019-05-05T21:57:04.369Z,100941.24
2019-05-05T21:59:35.514Z,100944.45
2019-05-05T22:02:06.491Z,100940.51
2019-05-05T22:04:37.489Z,100939.84
2019-05-05T22:07:08.446Z,100937.44
2019-05-05T22:09:39.452Z,100936.30
2019-05-05T22:12:10.270Z,100941.27
2019-05-05T22:14:43.905Z,100941.55
2019-05-05T22:17:14.899Z,100936.13
2019-05-05T22:19:56.683Z,100943.43
2019-05-05T22:22:29.004Z,100946.47
2019-05-05T22:25:00.262Z,100947.73
2019-05-05T22:27:31.640Z,100944.23
2019-05-05T22:30:09.926Z,100941.14
2019-05-05T22:32:35.419Z,100942.41
2019-05-05T22:35:07.630Z,100943.19
2019-05-05T22:37:38.708Z,100946.75
2019-05-05T22:40:13.833Z,100945.15
2019-05-05T22:42:46.986Z,100941.28
2019-05-05T22:45:17.927Z,100940.81
2019-05-05T22:47:48.892Z,100938.43
2019-05-05T22:50:19.863Z,100938.03
2019-05-05T22:52:50.826Z,100937.12
2019-05-05T22:55:21.822Z,100932.66
2019-05-05T22:57:54.390Z,100934.53
2019-05-05T23:00:29.446Z,100941.13
2019-05-05T23:03:07.938Z,100929.45
2019-05-05T23:05:40.682Z,100931.69
2019-05-05T23:08:13.606Z,100933.05
2019-05-05T23:10:44.677Z,100935.70
2019-05-05T23:13:16.193Z,100933.50
2019-05-05T23:15:48.817Z,100932.20
2019-05-05T23:18:25.715Z,100935.70
2019-05-05T23:21:01.325Z,100929.62
2019-05-05T23:23:46.539Z,100937.92
2019-05-05T23:26:19.271Z,100937.00
2019-05-05T23:28:50.278Z,100930.98
2019-05-05T23:31:21.311Z,100930.98
2019-05-05T23:33:54.882Z,100933.72
2019-05-05T23:36:25.882Z,100930.27
2019-05-05T23:38:58.180Z,100935.53
2019-05-05T23:41:29.514Z,100931.64
2019-05-05T23:44:00.642Z,100930.45
2019-05-05T23:46:34.666Z,100933.13
2019-05-05T23:49:04.988Z,100932.27
2019-05-05T23:51:35.741Z,100928.36
2019-05-05T23:54:06.776Z,100928.81
2019-05-05T23:56:37.707Z,100929.18
2019-05-05T23:59:08.515Z,100926.88
